Time;durP1;ratioP1;P1;durP2;ratioP2;P2;SDS_P1;SDS_P2;PMS_P1;PMS_P2;Temp;Humidity;BMP_temperature;BMP_pressure;BME280_temperature;BME280_humidity;BME280_pressure;Samples;Min_cycle;Max_cycle;Signal;HPM_P1;HPM_P2
2023/05/20 00:01:23;;;;;;;2.73;2.10;;;13.90;57.10;;;;;;6166626;23;20163;-74
2023/05/20 00:03:48;;;;;;;3.13;2.70;;;13.90;57.10;;;;;;6168773;23;20194;-74
2023/05/20 00:06:15;;;;;;;4.63;2.50;;;13.80;57.50;;;;;;6169961;23;20147;-74
2023/05/20 00:08:41;;;;;;;3.47;2.50;;;13.70;57.60;;;;;;6171049;23;20163;-72
2023/05/20 00:11:06;;;;;;;3.77;1.90;;;13.70;57.90;;;;;;6170369;23;20402;-76
2023/05/20 00:13:34;;;;;;;4.73;2.23;;;13.70;58.50;;;;;;6171726;23;20128;-75
2023/05/20 00:16:00;;;;;;;4.63;2.10;;;13.60;57.90;;;;;;6170135;23;20516;-73
2023/05/20 00:18:26;;;;;;;3.70;1.93;;;13.70;58.10;;;;;;6168449;23;20430;-73
2023/05/20 00:20:53;;;;;;;4.63;2.07;;;13.70;58.00;;;;;;6170344;23;20175;-76
2023/05/20 00:23:18;;;;;;;4.07;2.07;;;13.70;58.00;;;;;;6169364;23;20198;-73
2023/05/20 00:25:44;;;;;;;4.10;1.97;;;13.60;58.10;;;;;;6170743;23;20768;-74
2023/05/20 00:28:10;;;;;;;3.27;1.90;;;13.60;58.30;;;;;;6170298;23;20138;-73
2023/05/20 00:30:39;;;;;;;2.30;1.63;;;13.50;58.70;;;;;;6171336;23;20375;-73
2023/05/20 00:33:05;;;;;;;2.80;2.00;;;13.60;58.80;;;;;;6171017;23;20141;-73
2023/05/20 00:35:30;;;;;;;2.90;1.70;;;13.70;58.70;;;;;;6168531;23;20693;-72
2023/05/20 00:37:56;;;;;;;5.20;2.00;;;13.60;58.50;;;;;;6143344;23;20386;-75
2023/05/20 00:40:23;;;;;;;2.00;1.50;;;13.60;58.90;;;;;;6170892;23;20198;-75
2023/05/20 00:42:49;;;;;;;4.40;2.20;;;13.50;58.80;;;;;;6169595;23;20170;-73
2023/05/20 00:45:15;;;;;;;3.50;2.07;;;13.50;59.10;;;;;;6168112;23;20367;-72
2023/05/20 00:47:41;;;;;;;4.13;2.50;;;13.50;58.90;;;;;;6170172;23;20222;-74
2023/05/20 00:50:09;;;;;;;5.27;2.43;;;13.40;59.10;;;;;;6196487;23;20499;-74
2023/05/20 00:52:36;;;;;;;5.17;2.20;;;13.30;59.60;;;;;;6173095;23;20362;-75
2023/05/20 00:55:02;;;;;;;5.10;2.40;;;13.30;59.90;;;;;;6149599;23;20380;-75
2023/05/20 00:57:28;;;;;;;4.50;2.40;;;13.30;60.30;;;;;;6148110;23;20405;-75
2023/05/20 00:59:54;;;;;;;2.60;2.03;;;13.20;60.70;;;;;;6176825;23;20465;-72
2023/05/20 01:02:20;;;;;;;5.43;2.20;;;13.20;62.10;;;;;;6173968;23;20532;-72
2023/05/20 01:04:46;;;;;;;4.20;2.30;;;13.20;61.30;;;;;;6174997;23;20394;-75
2023/05/20 01:07:15;;;;;;;2.07;1.73;;;13.20;61.40;;;;;;6201001;23;20453;-73
2023/05/20 01:09:40;;;;;;;2.70;1.87;;;13.10;61.90;;;;;;6197362;23;20385;-73
2023/05/20 01:12:19;;;;;;;2.33;1.57;;;13.10;62.20;;;;;;6174872;23;20373;-74
2023/05/20 01:15:02;;;;;;;2.53;2.17;;;13.00;62.80;;;;;;6173728;23;20145;-74
2023/05/20 01:17:31;;;;;;;4.27;1.83;;;13.10;63.50;;;;;;6172258;23;20374;-73
2023/05/20 01:19:59;;;;;;;3.00;1.90;;;13.00;63.40;;;;;;6199248;23;20420;-72
2023/05/20 01:22:26;;;;;;;3.93;1.90;;;12.90;64.20;;;;;;6196972;23;20405;-73
2023/05/20 01:24:52;;;;;;;3.13;1.73;;;12.90;64.90;;;;;;6196795;23;20384;-73
2023/05/20 01:27:19;;;;;;;3.03;1.90;;;12.80;65.20;;;;;;6195648;23;20362;-73
2023/05/20 01:29:49;;;;;;;3.53;2.30;;;12.80;65.70;;;;;;6197899;23;20189;-72
2023/05/20 01:32:26;;;;;;;4.50;2.13;;;12.80;65.90;;;;;;6171686;23;20385;-72
2023/05/20 01:34:53;;;;;;;2.47;1.80;;;12.80;65.90;;;;;;6174957;23;20431;-72
2023/05/20 01:37:22;;;;;;;4.23;2.27;;;12.80;66.40;;;;;;6178766;23;20792;-73
2023/05/20 01:39:49;;;;;;;5.30;2.30;;;12.80;66.70;;;;;;6149710;23;20398;-74
2023/05/20 01:42:16;;;;;;;3.20;2.20;;;12.70;67.10;;;;;;6151338;23;20409;-74
2023/05/20 01:44:42;;;;;;;5.87;3.03;;;12.70;67.30;;;;;;6150689;23;20409;-73
2023/05/20 01:47:08;;;;;;;3.27;2.17;;;12.70;67.90;;;;;;6171236;23;20605;-72
2023/05/20 01:49:33;;;;;;;3.13;2.13;;;12.70;67.80;;;;;;6165775;23;20438;-72
2023/05/20 01:51:59;;;;;;;3.47;2.00;;;12.70;68.50;;;;;;6166229;23;20152;-74
2023/05/20 01:54:25;;;;;;;3.07;2.10;;;12.70;68.80;;;;;;6164342;23;20442;-72
2023/05/20 01:56:50;;;;;;;5.10;3.27;;;12.70;69.20;;;;;;6166284;23;20433;-72
2023/05/20 01:59:16;;;;;;;5.10;3.10;;;12.60;69.80;;;;;;6162877;23;20624;-71
2023/05/20 02:01:42;;;;;;;3.30;2.40;;;12.60;70.30;;;;;;6165070;23;20182;-72
2023/05/20 02:04:07;;;;;;;6.53;2.53;;;12.50;70.90;;;;;;6166651;23;20147;-73
2023/05/20 02:06:33;;;;;;;4.73;2.33;;;12.30;71.50;;;;;;6165800;23;20135;-74
2023/05/20 02:08:59;;;;;;;5.17;3.80;;;12.40;72.90;;;;;;6164892;23;20421;-72
2023/05/20 02:11:25;;;;;;;5.20;2.30;;;12.30;74.20;;;;;;6167063;23;20457;-73
2023/05/20 02:13:53;;;;;;;3.70;2.60;;;12.30;74.20;;;;;;6165560;23;20351;-73
2023/05/20 02:16:19;;;;;;;3.53;2.43;;;12.20;74.80;;;;;;6166093;23;20366;-73
2023/05/20 02:18:44;;;;;;;5.07;3.37;;;12.20;75.30;;;;;;6165429;23;20178;-71
2023/05/20 02:21:15;;;;;;;3.33;2.27;;;12.20;75.40;;;;;;6165660;23;20155;-73
2023/05/20 02:23:40;;;;;;;5.27;2.67;;;12.20;75.80;;;;;;6166493;23;20465;-71
2023/05/20 02:26:06;;;;;;;2.73;2.00;;;12.20;76.70;;;;;;6165690;23;20155;-70
2023/05/20 02:28:39;;;;;;;3.60;2.33;;;12.10;77.30;;;;;;6169025;23;20162;-73
2023/05/20 02:31:05;;;;;;;2.87;2.40;;;12.10;78.70;;;;;;6169899;23;20485;-74
2023/05/20 02:33:30;;;;;;;3.47;2.00;;;12.00;80.00;;;;;;6169932;23;20359;-72
2023/05/20 02:35:56;;;;;;;4.27;2.50;;;12.00;80.90;;;;;;6166020;23;20391;-70
2023/05/20 02:38:22;;;;;;;4.13;2.10;;;11.90;82.20;;;;;;6166411;23;20130;-72
2023/05/20 02:40:49;;;;;;;1.73;1.30;;;11.90;83.30;;;;;;6165710;23;20170;-72
2023/05/20 02:43:15;;;;;;;1.80;1.47;;;11.80;84.60;;;;;;6166395;23;20246;-72
2023/05/20 02:45:40;;;;;;;2.77;1.90;;;11.80;86.30;;;;;;6165526;23;20387;-72
2023/05/20 02:48:06;;;;;;;2.90;2.07;;;11.80;88.00;;;;;;6167547;23;20207;-73
2023/05/20 02:50:31;;;;;;;4.10;2.17;;;11.70;89.10;;;;;;6169840;23;20181;-72
2023/05/20 02:52:57;;;;;;;2.67;1.97;;;11.80;90.30;;;;;;6167613;23;20173;-72
2023/05/20 02:55:23;;;;;;;3.70;2.30;;;11.70;90.60;;;;;;6199766;23;20194;-72
2023/05/20 02:57:48;;;;;;;3.80;3.13;;;11.70;91.00;;;;;;6167371;23;20165;-72
2023/05/20 03:00:15;;;;;;;2.80;2.03;;;11.70;91.80;;;;;;6144024;23;20170;-73
2023/05/20 03:02:41;;;;;;;3.53;2.20;;;11.60;92.00;;;;;;6168838;23;20247;-71
2023/05/20 03:05:07;;;;;;;4.93;2.83;;;11.60;92.20;;;;;;6168841;23;20378;-70
2023/05/20 03:07:35;;;;;;;7.97;4.07;;;11.60;93.30;;;;;;6197066;23;20131;-71
2023/05/20 03:10:01;;;;;;;6.17;2.97;;;11.60;93.40;;;;;;6170957;23;20505;-72
2023/05/20 03:12:28;;;;;;;5.57;3.63;;;11.50;93.30;;;;;;6169915;23;20366;-73
2023/05/20 03:14:54;;;;;;;9.57;3.03;;;11.50;93.90;;;;;;6145325;23;20386;-72
2023/05/20 03:17:21;;;;;;;5.13;3.63;;;11.50;94.60;;;;;;6168171;23;20385;-72
2023/05/20 03:19:47;;;;;;;6.73;3.93;;;11.50;95.00;;;;;;6194340;23;20397;-71
2023/05/20 03:22:12;;;;;;;3.80;2.60;;;11.40;95.50;;;;;;6171564;23;20178;-73
2023/05/20 03:24:39;;;;;;;5.33;2.57;;;11.40;95.60;;;;;;6169248;23;20165;-73
2023/05/20 03:27:05;;;;;;;2.70;2.50;;;11.30;96.00;;;;;;6188193;23;20166;-71
2023/05/20 03:29:32;;;;;;;3.40;2.50;;;11.30;96.40;;;;;;6161404;23;20394;-72
2023/05/20 03:31:58;;;;;;;4.33;2.83;;;11.30;96.90;;;;;;6187304;23;20442;-71
2023/05/20 03:34:24;;;;;;;3.53;2.27;;;11.30;97.10;;;;;;6187224;23;20163;-71
2023/05/20 03:36:50;;;;;;;3.10;1.87;;;11.30;97.40;;;;;;6161337;23;20818;-71
2023/05/20 03:39:16;;;;;;;3.17;2.00;;;11.30;97.70;;;;;;6160353;23;20198;-71
2023/05/20 03:41:43;;;;;;;3.23;2.27;;;11.20;98.10;;;;;;6160991;23;20422;-73
2023/05/20 03:44:09;;;;;;;3.07;2.47;;;11.20;98.30;;;;;;6160150;23;20436;-71
2023/05/20 03:46:35;;;;;;;5.93;2.27;;;11.20;98.60;;;;;;6160912;23;20807;-70
2023/05/20 03:49:01;;;;;;;3.13;2.17;;;11.20;99.20;;;;;;6160247;23;20456;-72
2023/05/20 03:51:27;;;;;;;2.93;1.80;;;11.20;99.40;;;;;;6137174;23;20382;-73
2023/05/20 03:54:00;;;;;;;3.00;2.10;;;11.20;99.60;;;;;;6158846;23;20132;-72
2023/05/20 03:56:26;;;;;;;3.10;2.13;;;11.20;99.60;;;;;;6157703;23;20398;-72
2023/05/20 03:58:52;;;;;;;2.07;1.50;;;11.20;99.60;;;;;;6154415;23;20374;-72
2023/05/20 04:01:18;;;;;;;2.20;1.80;;;11.30;99.70;;;;;;6159191;23;20128;-71
2023/05/20 04:03:43;;;;;;;2.80;2.57;;;11.30;99.50;;;;;;6160793;23;20429;-72
2023/05/20 04:06:10;;;;;;;3.50;2.40;;;11.40;99.60;;;;;;6158440;23;20390;-71
2023/05/20 04:08:37;;;;;;;3.93;2.60;;;11.40;99.40;;;;;;6134449;23;20371;-71
2023/05/20 04:11:05;;;;;;;3.73;1.90;;;11.50;99.20;;;;;;6159928;23;20395;-71
2023/05/20 04:13:30;;;;;;;3.47;2.50;;;11.60;98.90;;;;;;6134761;23;20370;-71
2023/05/20 04:15:57;;;;;;;3.93;2.30;;;11.60;98.80;;;;;;6137014;23;20669;-72
2023/05/20 04:18:23;;;;;;;2.77;2.10;;;11.70;98.50;;;;;;6169193;23;20400;-71
2023/05/20 04:20:54;;;;;;;3.87;2.77;;;11.80;98.10;;;;;;6167355;23;20391;-74
2023/05/20 04:23:20;;;;;;;3.47;2.27;;;11.80;97.90;;;;;;6167164;23;20179;-72
2023/05/20 04:25:47;;;;;;;2.50;1.87;;;11.90;97.60;;;;;;6167743;23;20426;-71
2023/05/20 04:28:15;;;;;;;5.20;3.00;;;11.90;97.20;;;;;;6135122;23;20385;-74
2023/05/20 04:30:43;;;;;;;5.03;2.30;;;12.00;97.20;;;;;;6161028;23;20473;-72
2023/05/20 04:33:10;;;;;;;2.73;2.20;;;12.10;97.20;;;;;;6134738;23;20449;-72
2023/05/20 04:35:36;;;;;;;2.73;2.20;;;12.20;96.10;;;;;;6134130;23;20448;-71
2023/05/20 04:38:06;;;;;;;5.23;2.97;;;12.30;95.70;;;;;;6157785;23;20386;-72
2023/05/20 04:40:31;;;;;;;4.10;3.10;;;12.30;95.60;;;;;;6163899;23;20398;-72
2023/05/20 04:42:59;;;;;;;3.07;2.60;;;12.30;95.40;;;;;;6171471;23;20446;-72
2023/05/20 04:45:25;;;;;;;4.40;3.23;;;12.30;95.40;;;;;;6167720;23;20457;-71
2023/05/20 04:47:52;;;;;;;2.80;2.40;;;12.40;95.40;;;;;;6159181;23;20473;-72
2023/05/20 04:50:18;;;;;;;5.40;1.80;;;12.40;95.30;;;;;;6159444;23;20202;-72
2023/05/20 04:52:44;;;;;;;3.27;2.43;;;12.50;95.10;;;;;;6160913;23;20375;-72
2023/05/20 04:55:11;;;;;;;2.70;1.80;;;12.60;94.90;;;;;;6163323;23;20362;-71
2023/05/20 04:57:42;;;;;;;4.00;2.73;;;12.70;94.80;;;;;;6163535;23;20378;-72
2023/05/20 05:00:09;;;;;;;7.07;3.20;;;13.10;93.50;;;;;;6163270;23;20405;-71
2023/05/20 05:02:35;;;;;;;4.47;2.53;;;13.60;90.90;;;;;;6158946;23;20406;-73
2023/05/20 05:05:02;;;;;;;5.40;2.77;;;13.80;85.70;;;;;;6159109;23;20851;-71
2023/05/20 05:07:28;;;;;;;3.93;2.60;;;14.00;83.40;;;;;;6158310;23;20370;-70
2023/05/20 05:09:53;;;;;;;2.00;1.80;;;14.00;82.00;;;;;;6158918;23;20469;-71
2023/05/20 05:12:20;;;;;;;7.77;3.37;;;13.90;82.10;;;;;;6158518;23;20158;-72
2023/05/20 05:14:46;;;;;;;5.40;3.13;;;13.90;82.90;;;;;;6162991;23;20391;-72
2023/05/20 05:17:11;;;;;;;3.37;2.27;;;13.80;84.40;;;;;;6159114;23;20127;-71
2023/05/20 05:19:38;;;;;;;3.90;2.50;;;13.70;85.00;;;;;;6163036;23;20182;-73
2023/05/20 05:22:03;;;;;;;2.80;2.37;;;13.70;86.00;;;;;;6164415;23;20406;-72
2023/05/20 05:24:29;;;;;;;5.30;2.70;;;13.70;86.30;;;;;;6165260;23;20218;-72
2023/05/20 05:26:55;;;;;;;2.63;2.10;;;13.80;85.60;;;;;;6167642;23;20426;-72
2023/05/20 05:29:21;;;;;;;3.50;2.40;;;13.90;85.90;;;;;;6162308;23;20167;-72
2023/05/20 05:31:47;;;;;;;3.30;2.17;;;14.00;85.40;;;;;;6159455;23;20179;-71
2023/05/20 05:34:12;;;;;;;4.17;3.07;;;14.10;84.70;;;;;;6159604;23;20791;-72
2023/05/20 05:36:39;;;;;;;3.90;3.27;;;14.10;83.50;;;;;;6158524;23;20147;-72
2023/05/20 05:39:05;;;;;;;3.37;2.90;;;14.20;82.90;;;;;;6157676;23;20182;-73
2023/05/20 05:41:31;;;;;;;4.20;3.00;;;14.30;82.40;;;;;;6158494;23;20684;-72
2023/05/20 05:43:58;;;;;;;3.70;2.47;;;14.40;81.30;;;;;;6157658;23;20375;-73
2023/05/20 05:46:24;;;;;;;4.33;3.10;;;14.50;80.40;;;;;;6157249;23;20386;-72
2023/05/20 05:48:50;;;;;;;4.27;3.13;;;14.60;78.70;;;;;;6169364;23;20421;-72
2023/05/20 05:51:17;;;;;;;3.93;2.87;;;14.70;77.60;;;;;;6163007;23;20407;-72
2023/05/20 05:53:43;;;;;;;5.60;2.80;;;14.80;77.50;;;;;;6162624;23;20502;-72
2023/05/20 05:56:09;;;;;;;3.23;2.57;;;14.90;76.10;;;;;;6187642;23;20374;-73
2023/05/20 05:58:35;;;;;;;6.23;3.80;;;15.00;75.80;;;;;;6161874;23;20136;-73
2023/05/20 06:01:01;;;;;;;4.57;2.63;;;15.10;73.40;;;;;;6164184;23;20502;-74
2023/05/20 06:03:28;;;;;;;3.83;2.70;;;15.20;70.20;;;;;;6169124;23;20854;-73
2023/05/20 06:05:54;;;;;;;4.60;3.00;;;15.40;69.50;;;;;;6170617;23;20139;-72
2023/05/20 06:08:20;;;;;;;3.40;2.63;;;15.60;67.70;;;;;;6166872;23;20378;-72
2023/05/20 06:10:47;;;;;;;3.57;2.40;;;15.70;67.00;;;;;;6167304;23;20184;-73
2023/05/20 06:13:14;;;;;;;4.50;2.83;;;15.80;67.30;;;;;;6167984;23;20334;-73
2023/05/20 06:15:40;;;;;;;3.63;2.90;;;15.90;65.70;;;;;;6167625;23;20815;-73
2023/05/20 06:18:06;;;;;;;4.13;2.50;;;16.00;63.60;;;;;;6168279;23;20377;-73
2023/05/20 06:20:32;;;;;;;3.40;2.53;;;16.10;62.80;;;;;;6144217;23;20658;-73
2023/05/20 06:22:59;;;;;;;6.07;2.80;;;16.20;61.80;;;;;;6169058;23;20402;-76
2023/05/20 06:25:32;;;;;;;3.07;2.20;;;16.20;61.60;;;;;;6169214;23;20142;-73
2023/05/20 06:27:58;;;;;;;3.30;2.30;;;16.30;61.60;;;;;;6195760;23;20642;-72
2023/05/20 06:30:25;;;;;;;3.90;2.53;;;16.40;61.80;;;;;;6168500;23;20167;-73
2023/05/20 06:32:51;;;;;;;3.50;2.63;;;16.50;60.60;;;;;;6145532;23;20590;-72
2023/05/20 06:35:16;;;;;;;3.73;2.60;;;16.60;60.10;;;;;;6170048;23;20385;-73
2023/05/20 06:37:42;;;;;;;3.90;2.97;;;16.70;58.90;;;;;;6194266;23;20214;-73
2023/05/20 06:40:08;;;;;;;3.50;3.10;;;16.90;58.70;;;;;;6170887;23;20166;-72
2023/05/20 06:42:35;;;;;;;2.97;2.40;;;16.90;58.10;;;;;;6169688;23;20170;-74
2023/05/20 06:45:05;;;;;;;4.93;3.07;;;16.90;58.30;;;;;;6170127;23;20374;-74
2023/05/20 06:47:36;;;;;;;2.90;2.30;;;16.80;58.30;;;;;;6169442;23;20378;-73
2023/05/20 06:50:02;;;;;;;4.03;2.17;;;16.70;58.90;;;;;;6169413;23;20502;-73
2023/05/20 06:52:29;;;;;;;3.30;2.60;;;16.80;58.90;;;;;;6169844;23;20637;-73
2023/05/20 06:54:55;;;;;;;5.20;2.83;;;17.00;58.40;;;;;;6170199;23;20561;-73
2023/05/20 06:57:21;;;;;;;6.53;2.93;;;17.00;58.10;;;;;;6199201;23;20370;-73
2023/05/20 06:59:46;;;;;;;4.23;3.10;;;17.00;58.20;;;;;;6177401;23;20212;-73
2023/05/20 07:02:14;;;;;;;3.00;2.30;;;17.20;57.70;;;;;;6175319;23;20413;-73
2023/05/20 07:04:40;;;;;;;4.53;3.13;;;17.30;57.50;;;;;;6147935;23;20429;-73
2023/05/20 07:07:05;;;;;;;3.50;2.80;;;17.50;56.50;;;;;;6170005;23;20143;-73
2023/05/20 07:09:31;;;;;;;4.37;2.97;;;17.60;56.00;;;;;;6170338;23;20485;-73
2023/05/20 07:11:57;;;;;;;3.20;2.90;;;17.70;55.80;;;;;;6169457;23;20147;-73
2023/05/20 07:14:23;;;;;;;5.30;3.23;;;17.70;56.00;;;;;;6197710;23;20139;-73
2023/05/20 07:16:50;;;;;;;2.70;2.33;;;17.90;55.50;;;;;;6168819;23;20262;-74
2023/05/20 07:19:15;;;;;;;2.63;2.27;;;17.90;55.50;;;;;;6145385;23;20394;-75
2023/05/20 07:21:41;;;;;;;4.37;3.20;;;18.10;55.70;;;;;;6170721;23;20451;-73
2023/05/20 07:24:25;;;;;;;4.90;2.37;;;18.40;55.00;;;;;;6196847;23;20409;-72
2023/05/20 07:26:51;;;;;;;4.10;3.47;;;18.60;54.20;;;;;;6198223;23;20456;-74
2023/05/20 07:29:17;;;;;;;5.77;2.57;;;18.60;53.80;;;;;;6167756;23;20172;-76
2023/05/20 07:31:43;;;;;;;3.00;2.30;;;18.70;54.00;;;;;;6171080;23;20183;-74
2023/05/20 07:34:08;;;;;;;4.53;2.60;;;18.90;53.90;;;;;;6199217;23;20360;-75
2023/05/20 07:36:34;;;;;;;3.40;2.43;;;19.20;53.10;;;;;;6171724;23;20144;-73
2023/05/20 07:39:04;;;;;;;4.30;3.13;;;19.30;52.70;;;;;;6168706;23;20147;-73
2023/05/20 07:41:33;;;;;;;5.67;3.40;;;19.40;52.00;;;;;;6168563;23;20413;-74
2023/05/20 07:44:03;;;;;;;3.93;3.23;;;19.30;52.00;;;;;;6171273;23;20613;-73
2023/05/20 07:46:28;;;;;;;6.77;3.00;;;19.40;51.80;;;;;;6145532;23;20524;-74
2023/05/20 07:48:54;;;;;;;3.10;2.80;;;19.30;51.90;;;;;;6171631;23;20402;-75
2023/05/20 07:51:20;;;;;;;3.87;3.30;;;19.20;52.00;;;;;;6171098;23;20152;-73
2023/05/20 07:53:45;;;;;;;4.27;3.13;;;19.30;51.90;;;;;;6170775;23;20147;-75
2023/05/20 07:56:11;;;;;;;4.90;2.60;;;19.30;52.00;;;;;;6146963;23;20163;-76
2023/05/20 07:58:40;;;;;;;5.07;3.30;;;19.30;52.30;;;;;;6170708;23;20446;-76
2023/05/20 08:01:08;;;;;;;5.37;2.80;;;19.30;52.30;;;;;;6171411;23;20391;-74
2023/05/20 08:03:35;;;;;;;3.83;3.00;;;19.40;52.10;;;;;;6173007;23;20379;-74
2023/05/20 08:06:06;;;;;;;6.17;2.70;;;19.60;51.60;;;;;;6171567;23;20427;-73
2023/05/20 08:08:32;;;;;;;3.00;2.70;;;19.80;51.30;;;;;;6195188;23;20357;-74
2023/05/20 08:11:07;;;;;;;3.93;3.10;;;19.80;51.40;;;;;;6169810;23;20170;-74
2023/05/20 08:13:32;;;;;;;4.17;3.47;;;19.90;51.00;;;;;;6171335;23;20383;-74
2023/05/20 08:16:00;;;;;;;3.57;3.03;;;20.00;50.90;;;;;;6146572;23;20403;-74
2023/05/20 08:18:26;;;;;;;11.03;3.70;;;20.00;50.70;;;;;;6168941;23;20363;-73
2023/05/20 08:20:52;;;;;;;3.40;3.10;;;20.00;50.70;;;;;;6142996;23;20915;-73
2023/05/20 08:23:18;;;;;;;4.00;3.63;;;20.10;50.40;;;;;;6143055;23;20419;-75
2023/05/20 08:25:45;;;;;;;8.00;3.90;;;20.00;50.20;;;;;;6169341;23;20399;-73
2023/05/20 08:28:12;;;;;;;3.63;3.33;;;20.00;50.30;;;;;;6196441;23;20310;-73
2023/05/20 08:30:38;;;;;;;3.47;2.90;;;19.90;50.40;;;;;;6171438;23;20403;-75
2023/05/20 08:33:03;;;;;;;3.30;2.93;;;19.80;50.70;;;;;;6198230;23;20370;-73
2023/05/20 08:35:30;;;;;;;3.67;2.40;;;19.70;51.20;;;;;;6173734;23;20156;-74
2023/05/20 08:37:56;;;;;;;3.33;2.77;;;19.80;51.60;;;;;;6172127;23;20389;-72
2023/05/20 08:40:22;;;;;;;3.80;3.20;;;20.10;51.00;;;;;;6172097;23;20463;-74
2023/05/20 08:42:49;;;;;;;4.40;3.20;;;20.40;50.30;;;;;;6199932;23;20455;-75
2023/05/20 08:45:18;;;;;;;3.13;2.83;;;20.50;50.60;;;;;;6178235;23;20138;-74
2023/05/20 08:47:45;;;;;;;3.80;2.87;;;20.70;50.10;;;;;;6152710;23;20647;-75
2023/05/20 08:50:12;;;;;;;6.10;3.43;;;20.90;49.70;;;;;;6201969;23;20850;-74
2023/05/20 08:52:45;;;;;;;3.60;2.90;;;21.20;49.00;;;;;;6200266;23;20384;-74
2023/05/20 08:55:21;;;;;;;4.47;3.00;;;21.30;48.70;;;;;;6174580;23;20368;-77
2023/05/20 08:57:49;;;;;;;3.50;2.83;;;21.30;48.80;;;;;;6200207;23;20385;-74
2023/05/20 09:00:15;;;;;;;3.60;2.90;;;21.30;48.60;;;;;;6174385;23;20397;-76
2023/05/20 09:02:43;;;;;;;5.73;4.10;;;21.40;48.40;;;;;;6174638;23;20418;-73
2023/05/20 09:05:10;;;;;;;3.43;2.80;;;21.40;48.30;;;;;;6173821;23;20432;-75
2023/05/20 09:07:36;;;;;;;8.97;3.30;;;21.40;48.20;;;;;;6200196;23;20362;-73
2023/05/20 09:10:02;;;;;;;4.77;3.63;;;21.40;48.30;;;;;;6172133;23;20448;-75
2023/05/20 09:12:28;;;;;;;4.30;3.43;;;21.50;48.60;;;;;;6175647;23;20150;-74
2023/05/20 09:14:53;;;;;;;3.40;3.10;;;21.60;48.00;;;;;;6176261;23;20397;-76
2023/05/20 09:17:21;;;;;;;3.73;3.37;;;21.50;48.40;;;;;;6202753;23;20380;-77
2023/05/20 09:19:50;;;;;;;7.77;4.37;;;21.50;48.50;;;;;;6182979;23;20178;-76
2023/05/20 09:22:22;;;;;;;3.50;3.20;;;21.70;48.60;;;;;;6175636;23;20444;-74
2023/05/20 09:24:48;;;;;;;2.97;2.67;;;21.70;48.10;;;;;;6201141;23;20399;-74
2023/05/20 09:27:14;;;;;;;3.90;3.30;;;21.70;47.90;;;;;;6208457;23;20377;-78
2023/05/20 09:29:40;;;;;;;3.20;2.90;;;21.80;48.30;;;;;;6159201;23;20185;-77
2023/05/20 09:32:06;;;;;;;5.20;3.47;;;22.00;47.50;;;;;;6201259;23;20362;-77
2023/05/20 09:34:32;;;;;;;3.37;3.07;;;22.00;47.80;;;;;;6174432;23;20369;-76
2023/05/20 09:36:59;;;;;;;4.50;3.43;;;22.10;47.70;;;;;;6203486;23;20433;-78
2023/05/20 09:39:29;;;;;;;5.83;3.30;;;22.20;47.40;;;;;;6177302;23;20183;-76
2023/05/20 09:42:01;;;;;;;3.20;2.67;;;22.10;47.50;;;;;;6174157;23;20472;-75
2023/05/20 09:44:28;;;;;;;3.70;3.00;;;22.10;47.60;;;;;;6200596;23;20448;-77
2023/05/20 09:46:55;;;;;;;5.53;3.40;;;22.00;47.60;;;;;;6204573;23;20412;-77
2023/05/20 09:49:22;;;;;;;4.37;3.63;;;21.90;47.80;;;;;;6175224;23;20424;-75
2023/05/20 09:51:50;;;;;;;4.20;3.80;;;21.90;47.70;;;;;;6201616;23;20397;-76
2023/05/20 09:54:18;;;;;;;3.60;3.13;;;21.80;48.30;;;;;;6179271;23;20397;-77
2023/05/20 09:56:46;;;;;;;4.20;3.80;;;21.70;48.70;;;;;;6177041;23;20817;-76
2023/05/20 09:59:14;;;;;;;3.07;2.60;;;21.80;48.60;;;;;;6198664;23;20474;-76
2023/05/20 10:01:40;;;;;;;3.70;2.97;;;21.90;48.70;;;;;;6152064;23;20409;-76
2023/05/20 10:04:07;;;;;;;5.40;3.33;;;22.00;47.80;;;;;;6174778;23;20363;-75
2023/05/20 10:06:58;;;;;;;4.97;3.37;;;21.90;48.10;;;;;;6199452;23;20135;-77
2023/05/20 10:09:56;;;;;;;5.33;3.47;;;21.80;48.50;;;;;;6174612;23;20457;-75
2023/05/20 10:12:44;;;;;;;3.73;3.40;;;21.90;48.30;;;;;;6172441;23;20810;-76
2023/05/20 10:15:42;;;;;;;3.50;3.20;;;21.80;48.40;;;;;;6201407;23;20373;-76
2023/05/20 10:18:27;;;;;;;4.00;3.13;;;21.80;48.70;;;;;;6176366;23;20406;-75
2023/05/20 10:20:52;;;;;;;5.77;3.57;;;22.00;48.00;;;;;;6173846;23;20408;-74
2023/05/20 10:23:28;;;;;;;3.77;3.47;;;22.20;48.00;;;;;;6175257;23;20721;-77
2023/05/20 10:25:55;;;;;;;3.87;3.47;;;22.20;47.50;;;;;;6182493;23;20162;-76
2023/05/20 10:28:29;;;;;;;3.80;3.37;;;22.20;47.70;;;;;;6180572;23;20370;-76
2023/05/20 10:30:55;;;;;;;3.30;2.90;;;22.20;48.00;;;;;;6206857;23;20382;-76
2023/05/20 10:33:21;;;;;;;4.47;3.60;;;22.20;48.10;;;;;;6173455;23;20416;-74
2023/05/20 10:35:50;;;;;;;4.47;3.40;;;22.50;47.80;;;;;;6176915;23;20362;-75
2023/05/20 10:38:15;;;;;;;3.80;2.87;;;22.70;47.40;;;;;;6203299;23;20170;-76
2023/05/20 10:40:41;;;;;;;3.50;2.90;;;22.60;47.20;;;;;;6173503;23;20394;-76
2023/05/20 10:43:27;;;;;;;3.57;3.27;;;22.80;47.20;;;;;;6200568;23;20190;-76
2023/05/20 10:45:56;;;;;;;3.20;2.50;;;22.80;47.30;;;;;;6203046;23;20158;-75
2023/05/20 10:48:27;;;;;;;5.60;3.10;;;23.00;47.00;;;;;;6177216;23;20441;-77
2023/05/20 10:50:55;;;;;;;6.90;3.53;;;23.20;46.20;;;;;;6199793;23;20780;-76
2023/05/20 10:53:23;;;;;;;5.60;3.50;;;23.30;46.00;;;;;;6202226;23;20436;-76
2023/05/20 10:55:50;;;;;;;4.40;3.67;;;23.30;45.70;;;;;;6152089;23;20386;-77
2023/05/20 10:58:18;;;;;;;3.97;3.50;;;23.20;45.90;;;;;;6149640;23;20393;-78
2023/05/20 11:00:44;;;;;;;3.40;3.10;;;23.40;45.70;;;;;;6175773;23;20467;-77
2023/05/20 11:03:13;;;;;;;5.03;3.50;;;23.50;45.40;;;;;;6175661;23;20410;-78
2023/05/20 11:05:39;;;;;;;6.93;3.70;;;23.40;45.40;;;;;;6203021;23;20446;-76
2023/05/20 11:08:08;;;;;;;4.07;3.23;;;23.50;45.30;;;;;;6178673;23;20413;-74
2023/05/20 11:10:35;;;;;;;4.60;4.20;;;23.50;45.40;;;;;;6176283;23;20221;-73
2023/05/20 11:13:03;;;;;;;5.50;3.77;;;23.50;45.60;;;;;;6201257;23;20366;-77
2023/05/20 11:15:30;;;;;;;4.67;3.70;;;23.40;45.30;;;;;;6175797;23;20388;-76
2023/05/20 11:18:03;;;;;;;3.70;3.40;;;23.40;45.40;;;;;;6152030;23;20382;-76
2023/05/20 11:20:30;;;;;;;5.70;4.07;;;23.20;45.30;;;;;;6174718;23;20398;-78
2023/05/20 11:22:55;;;;;;;4.40;3.60;;;23.10;45.60;;;;;;6203261;23;20424;-79
2023/05/20 11:25:23;;;;;;;5.00;3.73;;;23.10;45.60;;;;;;6151833;23;20371;-76
2023/05/20 11:27:49;;;;;;;4.43;3.40;;;23.00;46.00;;;;;;6176307;23;20139;-77
2023/05/20 11:30:16;;;;;;;5.50;3.73;;;23.10;46.10;;;;;;6202833;23;20398;-76
2023/05/20 11:32:59;;;;;;;3.73;3.40;;;23.20;45.80;;;;;;6204234;23;20369;-78
2023/05/20 11:35:28;;;;;;;3.00;2.70;;;23.10;45.70;;;;;;6153459;23;20692;-78
2023/05/20 11:38:02;;;;;;;5.27;4.17;;;22.90;46.40;;;;;;6153242;23;20640;-78
2023/05/20 11:40:29;;;;;;;5.53;4.93;;;23.10;46.40;;;;;;6153695;23;20404;-76
2023/05/20 11:42:57;;;;;;;6.47;4.70;;;23.30;46.40;;;;;;6176738;23;20462;-74
2023/05/20 11:45:23;;;;;;;5.43;4.73;;;23.40;46.10;;;;;;6178930;23;20381;-77
2023/05/20 11:48:02;;;;;;;4.17;3.77;;;23.20;46.00;;;;;;6204970;23;20358;-77
2023/05/20 11:50:40;;;;;;;6.73;4.33;;;23.00;46.70;;;;;;6173822;23;20402;-77
2023/05/20 11:53:08;;;;;;;5.97;4.47;;;23.10;46.70;;;;;;6178037;23;20377;-76
2023/05/20 11:55:44;;;;;;;4.07;3.47;;;23.10;46.90;;;;;;6150049;23;20373;-78
2023/05/20 11:58:10;;;;;;;8.20;4.60;;;23.30;46.70;;;;;;6175507;23;20440;-76
2023/05/20 12:00:36;;;;;;;5.60;4.53;;;23.40;46.60;;;;;;6200730;23;20398;-77
2023/05/20 12:03:01;;;;;;;5.60;5.10;;;23.30;46.80;;;;;;6178613;23;20170;-78
2023/05/20 12:05:27;;;;;;;6.10;4.30;;;23.50;46.30;;;;;;6152820;23;20139;-76
2023/05/20 12:07:53;;;;;;;5.33;4.63;;;23.40;46.70;;;;;;6176304;23;20146;-77
2023/05/20 12:10:18;;;;;;;4.60;4.20;;;23.40;46.60;;;;;;6174742;23;20173;-78
2023/05/20 12:12:44;;;;;;;5.40;4.90;;;23.50;46.40;;;;;;6177846;23;20198;-77
2023/05/20 12:15:10;;;;;;;4.97;4.40;;;23.70;46.40;;;;;;6176823;23;20194;-77
2023/05/20 12:17:51;;;;;;;4.57;3.77;;;23.60;46.40;;;;;;6178198;23;20134;-77
2023/05/20 12:20:21;;;;;;;4.77;4.27;;;23.60;46.50;;;;;;6201539;23;20241;-77
2023/05/20 12:22:47;;;;;;;5.13;4.63;;;23.50;46.40;;;;;;6177004;23;20417;-76
2023/05/20 12:25:14;;;;;;;7.10;4.70;;;23.30;46.60;;;;;;6153091;23;20794;-77
2023/05/20 12:27:41;;;;;;;6.03;4.40;;;23.00;47.20;;;;;;6149331;23;20398;-76
2023/05/20 12:30:09;;;;;;;4.30;3.80;;;22.90;47.50;;;;;;6177114;23;20394;-79
2023/05/20 12:32:36;;;;;;;4.47;3.50;;;23.00;47.80;;;;;;6150854;23;20404;-77
2023/05/20 12:35:02;;;;;;;7.43;4.10;;;23.20;47.40;;;;;;6178845;23;20355;-77
2023/05/20 12:37:27;;;;;;;5.70;3.93;;;23.30;47.10;;;;;;6176107;23;20365;-76
2023/05/20 12:39:53;;;;;;;6.50;4.17;;;23.50;47.00;;;;;;6201348;23;20193;-77
2023/05/20 12:42:19;;;;;;;6.73;5.50;;;23.50;46.80;;;;;;6177926;23;20258;-78
2023/05/20 12:44:45;;;;;;;5.63;5.07;;;23.50;46.80;;;;;;6179201;23;20177;-78
2023/05/20 12:47:10;;;;;;;5.13;4.33;;;23.50;46.70;;;;;;6153206;23;20386;-77
2023/05/20 12:49:36;;;;;;;4.40;4.00;;;23.40;46.90;;;;;;6178517;23;20197;-76